sensor_id;sensor_type;location;lat;lon;timestamp;temperature;humidity
12967;DHT22;6548;49.996;8.238;2023-03-14T00:00:22;10.90;99.90
12967;DHT22;6548;49.996;8.238;2023-03-14T00:02:53;10.90;99.90
12967;DHT22;6548;49.996;8.238;2023-03-14T00:05:18;10.90;99.90
12967;DHT22;6548;49.996;8.238;2023-03-14T00:07:44;10.90;99.90
12967;DHT22;6548;49.996;8.238;2023-03-14T00:10:12;11.00;99.90
12967;DHT22;6548;49.996;8.238;2023-03-14T00:12:39;11.00;99.90
12967;DHT22;6548;49.996;8.238;2023-03-14T00:15:06;11.10;99.90
12967;DHT22;6548;49.996;8.238;2023-03-14T00:17:32;11.00;99.90
12967;DHT22;6548;49.996;8.238;2023-03-14T00:19:58;11.00;99.90
12967;DHT22;6548;49.996;8.238;2023-03-14T00:22:30;11.00;99.90
12967;DHT22;6548;49.996;8.238;2023-03-14T00:24:56;11.00;99.90
12967;DHT22;6548;49.996;8.238;2023-03-14T00:27:22;11.10;99.90
12967;DHT22;6548;49.996;8.238;2023-03-14T00:29:47;11.00;99.90
12967;DHT22;6548;49.996;8.238;2023-03-14T00:32:13;11.00;99.90
12967;DHT22;6548;49.996;8.238;2023-03-14T00:34:38;11.30;99.90
12967;DHT22;6548;49.996;8.238;2023-03-14T00:37:05;11.00;99.90
12967;DHT22;6548;49.996;8.238;2023-03-14T00:39:31;11.00;99.90
12967;DHT22;6548;49.996;8.238;2023-03-14T00:41:56;11.00;99.90
12967;DHT22;6548;49.996;8.238;2023-03-14T00:44:22;11.00;99.90
12967;DHT22;6548;49.996;8.238;2023-03-14T00:46:48;11.00;99.90
12967;DHT22;6548;49.996;8.238;2023-03-14T00:49:13;11.00;99.90
12967;DHT22;6548;49.996;8.238;2023-03-14T00:51:39;11.00;99.90
12967;DHT22;6548;49.996;8.238;2023-03-14T00:54:04;10.90;99.90
12967;DHT22;6548;49.996;8.238;2023-03-14T00:56:30;10.90;99.90
12967;DHT22;6548;49.996;8.238;2023-03-14T00:58:56;10.90;99.90
12967;DHT22;6548;49.996;8.238;2023-03-14T01:01:22;10.90;99.90
12967;DHT22;6548;49.996;8.238;2023-03-14T01:03:51;10.90;99.90
12967;DHT22;6548;49.996;8.238;2023-03-14T01:06:20;11.00;99.90
12967;DHT22;6548;49.996;8.238;2023-03-14T01:08:47;11.00;99.90
12967;DHT22;6548;49.996;8.238;2023-03-14T01:11:18;11.10;99.90
12967;DHT22;6548;49.996;8.238;2023-03-14T01:13:44;12.10;99.90
12967;DHT22;6548;49.996;8.238;2023-03-14T01:16:11;11.70;99.90
12967;DHT22;6548;49.996;8.238;2023-03-14T01:18:38;11.00;99.90
12967;DHT22;6548;49.996;8.238;2023-03-14T01:21:13;11.90;99.90
12967;DHT22;6548;49.996;8.238;2023-03-14T01:23:40;11.00;99.90
12967;DHT22;6548;49.996;8.238;2023-03-14T01:26:12;11.00;99.90
12967;DHT22;6548;49.996;8.238;2023-03-14T01:28:38;11.00;99.90
12967;DHT22;6548;49.996;8.238;2023-03-14T01:31:05;10.90;99.90
12967;DHT22;6548;49.996;8.238;2023-03-14T01:33:31;10.90;99.90
12967;DHT22;6548;49.996;8.238;2023-03-14T01:35:56;10.90;99.90
12967;DHT22;6548;49.996;8.238;2023-03-14T01:38:22;10.90;99.90
12967;DHT22;6548;49.996;8.238;2023-03-14T01:40:47;10.90;99.90
12967;DHT22;6548;49.996;8.238;2023-03-14T01:43:17;10.80;99.90
12967;DHT22;6548;49.996;8.238;2023-03-14T01:51:25;10.70;99.90
12967;DHT22;6548;49.996;8.238;2023-03-14T01:53:54;10.70;99.90
12967;DHT22;6548;49.996;8.238;2023-03-14T01:56:22;10.70;99.90
12967;DHT22;6548;49.996;8.238;2023-03-14T01:58:50;10.80;99.90
12967;DHT22;6548;49.996;8.238;2023-03-14T02:01:18;11.10;99.90
12967;DHT22;6548;49.996;8.238;2023-03-14T02:03:53;10.80;99.90
12967;DHT22;6548;49.996;8.238;2023-03-14T02:06:25;10.80;99.90
12967;DHT22;6548;49.996;8.238;2023-03-14T02:08:51;10.80;99.90
12967;DHT22;6548;49.996;8.238;2023-03-14T02:11:18;10.70;99.90
12967;DHT22;6548;49.996;8.238;2023-03-14T02:13:44;10.80;99.90
12967;DHT22;6548;49.996;8.238;2023-03-14T02:16:10;10.80;99.90
12967;DHT22;6548;49.996;8.238;2023-03-14T02:18:37;10.90;99.90
12967;DHT22;6548;49.996;8.238;2023-03-14T02:21:14;10.90;99.90
12967;DHT22;6548;49.996;8.238;2023-03-14T02:26:22;10.80;99.90
12967;DHT22;6548;49.996;8.238;2023-03-14T02:28:49;10.90;99.90
12967;DHT22;6548;49.996;8.238;2023-03-14T02:31:16;10.90;99.90
12967;DHT22;6548;49.996;8.238;2023-03-14T02:33:42;10.80;99.90
12967;DHT22;6548;49.996;8.238;2023-03-14T02:36:09;10.80;99.90
12967;DHT22;6548;49.996;8.238;2023-03-14T02:41:26;10.70;99.90
12967;DHT22;6548;49.996;8.238;2023-03-14T02:43:51;10.70;99.90
12967;DHT22;6548;49.996;8.238;2023-03-14T02:46:19;10.60;99.90
12967;DHT22;6548;49.996;8.238;2023-03-14T02:48:53;10.60;99.90
12967;DHT22;6548;49.996;8.238;2023-03-14T02:51:21;10.70;99.90
12967;DHT22;6548;49.996;8.238;2023-03-14T02:53:48;11.40;99.90
12967;DHT22;6548;49.996;8.238;2023-03-14T02:56:13;11.60;99.90
12967;DHT22;6548;49.996;8.238;2023-03-14T02:58:39;10.70;99.90
12967;DHT22;6548;49.996;8.238;2023-03-14T03:01:05;10.70;99.90
12967;DHT22;6548;49.996;8.238;2023-03-14T03:03:31;10.70;99.90
12967;DHT22;6548;49.996;8.238;2023-03-14T03:05:56;10.90;99.90
12967;DHT22;6548;49.996;8.238;2023-03-14T03:08:25;10.80;99.90
12967;DHT22;6548;49.996;8.238;2023-03-14T03:10:51;10.80;99.90
12967;DHT22;6548;49.996;8.238;2023-03-14T03:13:17;11.30;99.90
12967;DHT22;6548;49.996;8.238;2023-03-14T03:15:43;10.80;99.90
12967;DHT22;6548;49.996;8.238;2023-03-14T03:18:09;10.80;99.90
12967;DHT22;6548;49.996;8.238;2023-03-14T03:20:35;10.80;99.90
12967;DHT22;6548;49.996;8.238;2023-03-14T03:23:01;10.80;99.90
12967;DHT22;6548;49.996;8.238;2023-03-14T03:25:27;10.80;99.90
12967;DHT22;6548;49.996;8.238;2023-03-14T03:27:53;10.90;99.90
12967;DHT22;6548;49.996;8.238;2023-03-14T03:30:18;12.20;99.90
12967;DHT22;6548;49.996;8.238;2023-03-14T03:32:47;11.90;99.90
12967;DHT22;6548;49.996;8.238;2023-03-14T03:35:12;10.90;99.90
12967;DHT22;6548;49.996;8.238;2023-03-14T03:37:39;10.80;99.90
12967;DHT22;6548;49.996;8.238;2023-03-14T03:40:06;10.90;99.90
12967;DHT22;6548;49.996;8.238;2023-03-14T03:42:33;10.90;99.90
12967;DHT22;6548;49.996;8.238;2023-03-14T03:44:59;10.90;99.90
12967;DHT22;6548;49.996;8.238;2023-03-14T03:47:25;10.90;99.90
12967;DHT22;6548;49.996;8.238;2023-03-14T03:49:51;10.90;99.90
12967;DHT22;6548;49.996;8.238;2023-03-14T03:52:16;10.90;99.90
12967;DHT22;6548;49.996;8.238;2023-03-14T03:54:42;10.90;99.90
12967;DHT22;6548;49.996;8.238;2023-03-14T03:57:08;11.70;99.90
12967;DHT22;6548;49.996;8.238;2023-03-14T03:59:34;10.80;99.90
12967;DHT22;6548;49.996;8.238;2023-03-14T04:01:59;10.80;99.90
12967;DHT22;6548;49.996;8.238;2023-03-14T04:04:25;10.80;99.90
12967;DHT22;6548;49.996;8.238;2023-03-14T04:06:51;10.80;99.90
12967;DHT22;6548;49.996;8.238;2023-03-14T04:09:16;10.80;99.90
12967;DHT22;6548;49.996;8.238;2023-03-14T04:11:42;10.80;99.90
12967;DHT22;6548;49.996;8.238;2023-03-14T04:14:08;10.70;99.90
12967;DHT22;6548;49.996;8.238;2023-03-14T04:16:33;10.80;99.90
12967;DHT22;6548;49.996;8.238;2023-03-14T04:19:00;10.80;99.90
12967;DHT22;6548;49.996;8.238;2023-03-14T04:21:26;10.70;99.90
12967;DHT22;6548;49.996;8.238;2023-03-14T04:23:51;11.40;99.90
12967;DHT22;6548;49.996;8.238;2023-03-14T04:26:17;10.70;99.90
12967;DHT22;6548;49.996;8.238;2023-03-14T04:28:43;10.70;99.90
12967;DHT22;6548;49.996;8.238;2023-03-14T04:31:10;10.60;99.90
12967;DHT22;6548;49.996;8.238;2023-03-14T04:33:36;10.50;99.90
12967;DHT22;6548;49.996;8.238;2023-03-14T04:36:03;10.50;99.90
12967;DHT22;6548;49.996;8.238;2023-03-14T04:38:29;10.50;99.90
12967;DHT22;6548;49.996;8.238;2023-03-14T04:40:54;10.40;99.90
12967;DHT22;6548;49.996;8.238;2023-03-14T04:43:20;10.40;99.90
12967;DHT22;6548;49.996;8.238;2023-03-14T04:45:45;10.40;99.90
12967;DHT22;6548;49.996;8.238;2023-03-14T04:48:11;10.40;99.90
12967;DHT22;6548;49.996;8.238;2023-03-14T04:50:37;10.30;99.90
12967;DHT22;6548;49.996;8.238;2023-03-14T04:53:04;10.30;99.90
12967;DHT22;6548;49.996;8.238;2023-03-14T04:55:30;10.30;99.90
12967;DHT22;6548;49.996;8.238;2023-03-14T04:57:57;10.30;99.90
12967;DHT22;6548;49.996;8.238;2023-03-14T05:00:23;10.60;99.90
12967;DHT22;6548;49.996;8.238;2023-03-14T05:02:48;10.30;99.90
12967;DHT22;6548;49.996;8.238;2023-03-14T05:05:14;10.30;99.90
12967;DHT22;6548;49.996;8.238;2023-03-14T05:07:39;10.30;99.90
12967;DHT22;6548;49.996;8.238;2023-03-14T05:10:05;10.20;99.90
12967;DHT22;6548;49.996;8.238;2023-03-14T05:12:31;10.30;99.90
12967;DHT22;6548;49.996;8.238;2023-03-14T05:14:56;10.30;99.90
12967;DHT22;6548;49.996;8.238;2023-03-14T05:17:22;10.30;99.90
12967;DHT22;6548;49.996;8.238;2023-03-14T05:19:47;10.30;99.90
12967;DHT22;6548;49.996;8.238;2023-03-14T05:22:13;10.40;99.90
12967;DHT22;6548;49.996;8.238;2023-03-14T05:24:38;10.30;99.90
12967;DHT22;6548;49.996;8.238;2023-03-14T05:27:04;10.30;99.90
12967;DHT22;6548;49.996;8.238;2023-03-14T05:29:30;10.80;99.90
12967;DHT22;6548;49.996;8.238;2023-03-14T05:31:55;10.20;99.90
12967;DHT22;6548;49.996;8.238;2023-03-14T05:34:21;10.20;99.90
12967;DHT22;6548;49.996;8.238;2023-03-14T05:36:47;10.20;99.90
12967;DHT22;6548;49.996;8.238;2023-03-14T05:39:12;10.20;99.90
12967;DHT22;6548;49.996;8.238;2023-03-14T05:41:38;10.20;99.90
12967;DHT22;6548;49.996;8.238;2023-03-14T05:44:04;10.20;99.90
12967;DHT22;6548;49.996;8.238;2023-03-14T05:46:29;10.30;99.90
12967;DHT22;6548;49.996;8.238;2023-03-14T05:48:58;10.30;99.90
12967;DHT22;6548;49.996;8.238;2023-03-14T05:51:24;10.20;99.90
12967;DHT22;6548;49.996;8.238;2023-03-14T05:53:50;10.30;99.90
12967;DHT22;6548;49.996;8.238;2023-03-14T05:56:15;10.30;99.90
12967;DHT22;6548;49.996;8.238;2023-03-14T05:58:41;10.30;99.90
12967;DHT22;6548;49.996;8.238;2023-03-14T06:01:07;10.30;99.90
12967;DHT22;6548;49.996;8.238;2023-03-14T06:03:33;10.30;99.90
12967;DHT22;6548;49.996;8.238;2023-03-14T06:05:58;10.30;99.90
12967;DHT22;6548;49.996;8.238;2023-03-14T06:08:24;10.30;99.90
12967;DHT22;6548;49.996;8.238;2023-03-14T06:10:51;10.30;99.90
12967;DHT22;6548;49.996;8.238;2023-03-14T06:13:16;10.30;99.90
12967;DHT22;6548;49.996;8.238;2023-03-14T06:15:42;10.20;99.90
12967;DHT22;6548;49.996;8.238;2023-03-14T06:18:08;10.30;99.90
12967;DHT22;6548;49.996;8.238;2023-03-14T06:20:36;10.30;99.90
12967;DHT22;6548;49.996;8.238;2023-03-14T06:23:04;10.20;99.90
12967;DHT22;6548;49.996;8.238;2023-03-14T06:25:30;10.30;99.90
12967;DHT22;6548;49.996;8.238;2023-03-14T06:27:56;10.30;99.90
12967;DHT22;6548;49.996;8.238;2023-03-14T06:30:21;10.30;99.90
12967;DHT22;6548;49.996;8.238;2023-03-14T06:32:47;10.30;99.90
12967;DHT22;6548;49.996;8.238;2023-03-14T06:35:12;10.30;99.90
12967;DHT22;6548;49.996;8.238;2023-03-14T06:37:38;10.30;99.90
12967;DHT22;6548;49.996;8.238;2023-03-14T06:40:04;10.30;99.90
12967;DHT22;6548;49.996;8.238;2023-03-14T06:42:32;10.40;99.90
12967;DHT22;6548;49.996;8.238;2023-03-14T06:44:58;11.00;99.90
12967;DHT22;6548;49.996;8.238;2023-03-14T06:47:23;10.40;99.90
12967;DHT22;6548;49.996;8.238;2023-03-14T06:49:51;11.50;99.90
12967;DHT22;6548;49.996;8.238;2023-03-14T06:52:19;10.50;99.90
12967;DHT22;6548;49.996;8.238;2023-03-14T06:54:45;10.40;99.90
12967;DHT22;6548;49.996;8.238;2023-03-14T06:57:11;10.40;99.90
12967;DHT22;6548;49.996;8.238;2023-03-14T06:59:36;10.50;99.90
12967;DHT22;6548;49.996;8.238;2023-03-14T07:02:02;10.50;99.90
12967;DHT22;6548;49.996;8.238;2023-03-14T07:04:27;10.60;99.90
12967;DHT22;6548;49.996;8.238;2023-03-14T07:06:53;10.60;99.90
12967;DHT22;6548;49.996;8.238;2023-03-14T07:09:19;10.60;99.90
12967;DHT22;6548;49.996;8.238;2023-03-14T07:11:45;10.60;99.90
12967;DHT22;6548;49.996;8.238;2023-03-14T07:14:10;10.60;99.90
12967;DHT22;6548;49.996;8.238;2023-03-14T07:16:36;10.60;99.90
12967;DHT22;6548;49.996;8.238;2023-03-14T07:19:02;10.60;99.90
12967;DHT22;6548;49.996;8.238;2023-03-14T07:21:28;10.60;99.90
12967;DHT22;6548;49.996;8.238;2023-03-14T07:23:53;10.60;99.90
12967;DHT22;6548;49.996;8.238;2023-03-14T07:26:19;10.60;99.90
12967;DHT22;6548;49.996;8.238;2023-03-14T07:28:45;10.60;99.90
12967;DHT22;6548;49.996;8.238;2023-03-14T07:31:10;10.50;99.90
12967;DHT22;6548;49.996;8.238;2023-03-14T07:33:36;10.60;99.90
12967;DHT22;6548;49.996;8.238;2023-03-14T07:36:01;10.60;99.90
12967;DHT22;6548;49.996;8.238;2023-03-14T07:38:27;10.60;99.90
12967;DHT22;6548;49.996;8.238;2023-03-14T07:41:00;10.60;99.90
12967;DHT22;6548;49.996;8.238;2023-03-14T07:43:26;10.60;99.90
12967;DHT22;6548;49.996;8.238;2023-03-14T07:45:52;10.60;99.90
12967;DHT22;6548;49.996;8.238;2023-03-14T07:48:17;10.60;99.90
12967;DHT22;6548;49.996;8.238;2023-03-14T07:50:43;10.60;99.90
12967;DHT22;6548;49.996;8.238;2023-03-14T07:53:09;10.60;99.90
12967;DHT22;6548;49.996;8.238;2023-03-14T07:55:34;10.60;99.90
12967;DHT22;6548;49.996;8.238;2023-03-14T07:58:00;10.60;99.90
12967;DHT22;6548;49.996;8.238;2023-03-14T08:00:26;10.60;99.90
12967;DHT22;6548;49.996;8.238;2023-03-14T08:02:52;10.60;99.90
12967;DHT22;6548;49.996;8.238;2023-03-14T08:05:18;10.60;99.90
12967;DHT22;6548;49.996;8.238;2023-03-14T08:07:43;10.60;99.90
12967;DHT22;6548;49.996;8.238;2023-03-14T08:10:12;10.70;99.90
12967;DHT22;6548;49.996;8.238;2023-03-14T08:12:41;10.70;99.90
12967;DHT22;6548;49.996;8.238;2023-03-14T08:15:07;10.70;99.90
12967;DHT22;6548;49.996;8.238;2023-03-14T08:17:32;10.80;99.90
12967;DHT22;6548;49.996;8.238;2023-03-14T08:19:58;10.80;99.90
12967;DHT22;6548;49.996;8.238;2023-03-14T08:22:23;10.90;99.90
12967;DHT22;6548;49.996;8.238;2023-03-14T08:24:49;11.00;99.90
12967;DHT22;6548;49.996;8.238;2023-03-14T08:27:14;11.10;99.90
12967;DHT22;6548;49.996;8.238;2023-03-14T08:29:40;11.20;99.90
12967;DHT22;6548;49.996;8.238;2023-03-14T08:32:07;11.20;99.90
12967;DHT22;6548;49.996;8.238;2023-03-14T08:34:33;11.30;99.90
12967;DHT22;6548;49.996;8.238;2023-03-14T08:36:59;12.40;99.90
12967;DHT22;6548;49.996;8.238;2023-03-14T08:39:24;11.60;99.90
12967;DHT22;6548;49.996;8.238;2023-03-14T08:41:50;11.60;99.90
12967;DHT22;6548;49.996;8.238;2023-03-14T08:44:15;11.50;99.90
12967;DHT22;6548;49.996;8.238;2023-03-14T08:46:41;11.40;99.90
12967;DHT22;6548;49.996;8.238;2023-03-14T08:49:06;11.40;99.90
12967;DHT22;6548;49.996;8.238;2023-03-14T08:51:32;11.50;99.90
12967;DHT22;6548;49.996;8.238;2023-03-14T08:53:57;11.50;99.90
12967;DHT22;6548;49.996;8.238;2023-03-14T08:56:23;11.40;99.90
12967;DHT22;6548;49.996;8.238;2023-03-14T08:58:48;11.40;99.90
12967;DHT22;6548;49.996;8.238;2023-03-14T09:01:14;11.20;99.90
12967;DHT22;6548;49.996;8.238;2023-03-14T09:03:39;11.10;99.90
12967;DHT22;6548;49.996;8.238;2023-03-14T09:06:08;11.20;99.90
12967;DHT22;6548;49.996;8.238;2023-03-14T09:08:35;11.30;99.90
12967;DHT22;6548;49.996;8.238;2023-03-14T09:11:00;11.30;99.90
12967;DHT22;6548;49.996;8.238;2023-03-14T09:13:26;11.30;99.90
12967;DHT22;6548;49.996;8.238;2023-03-14T09:15:53;11.50;99.90
12967;DHT22;6548;49.996;8.238;2023-03-14T09:18:18;11.20;99.90
12967;DHT22;6548;49.996;8.238;2023-03-14T09:20:44;11.20;99.90
12967;DHT22;6548;49.996;8.238;2023-03-14T09:23:09;11.20;99.90
12967;DHT22;6548;49.996;8.238;2023-03-14T09:25:35;11.10;99.90
12967;DHT22;6548;49.996;8.238;2023-03-14T09:28:00;11.90;99.90
12967;DHT22;6548;49.996;8.238;2023-03-14T09:30:26;11.20;99.90
12967;DHT22;6548;49.996;8.238;2023-03-14T09:32:51;11.30;99.90
12967;DHT22;6548;49.996;8.238;2023-03-14T09:35:17;11.30;99.90
12967;DHT22;6548;49.996;8.238;2023-03-14T09:37:43;11.20;99.90
12967;DHT22;6548;49.996;8.238;2023-03-14T09:40:12;12.20;99.90
12967;DHT22;6548;49.996;8.238;2023-03-14T09:42:39;11.40;99.90
12967;DHT22;6548;49.996;8.238;2023-03-14T09:45:52;11.60;99.90
12967;DHT22;6548;49.996;8.238;2023-03-14T09:48:00;11.60;99.90
12967;DHT22;6548;49.996;8.238;2023-03-14T09:50:36;11.60;99.90
12967;DHT22;6548;49.996;8.238;2023-03-14T09:53:07;11.60;99.90
12967;DHT22;6548;49.996;8.238;2023-03-14T09:55:35;11.70;99.90
12967;DHT22;6548;49.996;8.238;2023-03-14T09:58:05;11.80;99.90
12967;DHT22;6548;49.996;8.238;2023-03-14T10:00:35;11.90;99.90
12967;DHT22;6548;49.996;8.238;2023-03-14T10:05:42;13.00;99.90
12967;DHT22;6548;49.996;8.238;2023-03-14T10:08:12;12.00;99.90
12967;DHT22;6548;49.996;8.238;2023-03-14T10:10:37;12.00;99.90
12967;DHT22;6548;49.996;8.238;2023-03-14T10:15:35;11.80;99.90
12967;DHT22;6548;49.996;8.238;2023-03-14T10:18:04;11.90;99.90
12967;DHT22;6548;49.996;8.238;2023-03-14T10:20:41;11.80;99.90
12967;DHT22;6548;49.996;8.238;2023-03-14T10:25:42;11.60;99.90
12967;DHT22;6548;49.996;8.238;2023-03-14T10:28:29;11.70;99.90
12967;DHT22;6548;49.996;8.238;2023-03-14T10:30:56;11.70;99.90
12967;DHT22;6548;49.996;8.238;2023-03-14T10:33:23;11.70;99.90
12967;DHT22;6548;49.996;8.238;2023-03-14T10:38:28;11.70;99.90
12967;DHT22;6548;49.996;8.238;2023-03-14T10:40:55;11.70;99.90
12967;DHT22;6548;49.996;8.238;2023-03-14T10:43:33;11.70;99.90
12967;DHT22;6548;49.996;8.238;2023-03-14T10:46:17;11.80;99.90
12967;DHT22;6548;49.996;8.238;2023-03-14T10:48:45;11.90;99.90
12967;DHT22;6548;49.996;8.238;2023-03-14T10:51:28;11.90;99.90
12967;DHT22;6548;49.996;8.238;2023-03-14T10:56:26;12.00;99.90
12967;DHT22;6548;49.996;8.238;2023-03-14T10:58:56;12.00;99.90
12967;DHT22;6548;49.996;8.238;2023-03-14T11:04:41;11.80;99.90
12967;DHT22;6548;49.996;8.238;2023-03-14T11:07:26;11.90;99.90
12967;DHT22;6548;49.996;8.238;2023-03-14T11:10:07;11.90;99.90
12967;DHT22;6548;49.996;8.238;2023-03-14T11:21:38;12.20;99.90
12967;DHT22;6548;49.996;8.238;2023-03-14T11:24:33;12.30;99.90
12967;DHT22;6548;49.996;8.238;2023-03-14T11:27:23;12.40;99.90
12967;DHT22;6548;49.996;8.238;2023-03-14T11:30:02;12.60;99.90
12967;DHT22;6548;49.996;8.238;2023-03-14T11:32:38;12.70;99.90
12967;DHT22;6548;49.996;8.238;2023-03-14T11:37:46;12.80;99.90
12967;DHT22;6548;49.996;8.238;2023-03-14T11:40:25;12.50;99.90
12967;DHT22;6548;49.996;8.238;2023-03-14T11:43:02;12.20;99.90
12967;DHT22;6548;49.996;8.238;2023-03-14T11:45:48;11.70;99.90
12967;DHT22;6548;49.996;8.238;2023-03-14T11:48:17;11.80;99.90
12967;DHT22;6548;49.996;8.238;2023-03-14T11:50:48;12.00;99.90
12967;DHT22;6548;49.996;8.238;2023-03-14T11:53:24;12.10;99.90
12967;DHT22;6548;49.996;8.238;2023-03-14T11:55:55;11.80;99.90
12967;DHT22;6548;49.996;8.238;2023-03-14T11:58:29;11.70;99.90
12967;DHT22;6548;49.996;8.238;2023-03-14T12:00:57;11.30;99.90
12967;DHT22;6548;49.996;8.238;2023-03-14T12:03:50;11.20;99.90
12967;DHT22;6548;49.996;8.238;2023-03-14T12:06:47;11.50;99.90
12967;DHT22;6548;49.996;8.238;2023-03-14T12:09:15;11.50;99.90
12967;DHT22;6548;49.996;8.238;2023-03-14T12:11:50;11.30;99.90
12967;DHT22;6548;49.996;8.238;2023-03-14T12:14:35;11.50;99.90
12967;DHT22;6548;49.996;8.238;2023-03-14T12:17:21;11.80;99.90
12967;DHT22;6548;49.996;8.238;2023-03-14T12:19:48;11.90;99.90
12967;DHT22;6548;49.996;8.238;2023-03-14T12:22:30;12.10;99.90
12967;DHT22;6548;49.996;8.238;2023-03-14T12:25:02;12.70;99.90
12967;DHT22;6548;49.996;8.238;2023-03-14T12:30:42;12.80;99.90
12967;DHT22;6548;49.996;8.238;2023-03-14T12:33:26;12.50;99.90
12967;DHT22;6548;49.996;8.238;2023-03-14T12:36:00;12.20;99.90
12967;DHT22;6548;49.996;8.238;2023-03-14T12:43:50;11.80;99.90
12967;DHT22;6548;49.996;8.238;2023-03-14T12:46:26;11.60;99.90
12967;DHT22;6548;49.996;8.238;2023-03-14T12:51:40;11.60;99.90
12967;DHT22;6548;49.996;8.238;2023-03-14T13:02:29;11.10;99.90
12967;DHT22;6548;49.996;8.238;2023-03-14T13:05:05;11.50;99.90
12967;DHT22;6548;49.996;8.238;2023-03-14T13:10:25;11.90;99.90
12967;DHT22;6548;49.996;8.238;2023-03-14T13:13:03;11.50;99.90
12967;DHT22;6548;49.996;8.238;2023-03-14T13:15:44;10.80;99.90
12967;DHT22;6548;49.996;8.238;2023-03-14T13:18:15;10.40;99.90
12967;DHT22;6548;49.996;8.238;2023-03-14T13:20:59;9.70;99.90
12967;DHT22;6548;49.996;8.238;2023-03-14T13:23:29;9.40;99.90
12967;DHT22;6548;49.996;8.238;2023-03-14T13:25:56;9.20;99.90
12967;DHT22;6548;49.996;8.238;2023-03-14T13:28:22;9.00;99.90
12967;DHT22;6548;49.996;8.238;2023-03-14T13:30:49;8.80;99.90
12967;DHT22;6548;49.996;8.238;2023-03-14T13:33:21;9.20;99.90
12967;DHT22;6548;49.996;8.238;2023-03-14T13:35:50;9.40;99.90
12967;DHT22;6548;49.996;8.238;2023-03-14T13:38:22;9.60;99.90
12967;DHT22;6548;49.996;8.238;2023-03-14T13:40:49;9.90;99.90
12967;DHT22;6548;49.996;8.238;2023-03-14T13:45:55;10.70;99.90
12967;DHT22;6548;49.996;8.238;2023-03-14T13:48:26;10.80;99.90
12967;DHT22;6548;49.996;8.238;2023-03-14T13:51:12;11.00;99.90
12967;DHT22;6548;49.996;8.238;2023-03-14T13:53:44;10.70;99.90
12967;DHT22;6548;49.996;8.238;2023-03-14T13:56:10;10.70;99.90
12967;DHT22;6548;49.996;8.238;2023-03-14T13:58:38;10.60;99.90
12967;DHT22;6548;49.996;8.238;2023-03-14T14:03:55;10.30;99.90
12967;DHT22;6548;49.996;8.238;2023-03-14T14:06:30;10.70;99.90
12967;DHT22;6548;49.996;8.238;2023-03-14T14:09:10;10.60;99.90
12967;DHT22;6548;49.996;8.238;2023-03-14T14:11:43;10.40;99.90
12967;DHT22;6548;49.996;8.238;2023-03-14T14:14:39;10.60;99.90
12967;DHT22;6548;49.996;8.238;2023-03-14T14:17:05;10.80;99.90
12967;DHT22;6548;49.996;8.238;2023-03-14T14:19:33;10.30;99.90
12967;DHT22;6548;49.996;8.238;2023-03-14T14:21:59;10.50;99.90
12967;DHT22;6548;49.996;8.238;2023-03-14T14:24:29;10.40;99.90
12967;DHT22;6548;49.996;8.238;2023-03-14T14:29:30;10.00;99.90
12967;DHT22;6548;49.996;8.238;2023-03-14T14:34:29;9.70;99.90
12967;DHT22;6548;49.996;8.238;2023-03-14T14:36:55;9.70;99.90
12967;DHT22;6548;49.996;8.238;2023-03-14T14:39:27;9.70;99.90
12967;DHT22;6548;49.996;8.238;2023-03-14T14:41:54;9.80;99.90
12967;DHT22;6548;49.996;8.238;2023-03-14T14:46:55;9.70;99.90
12967;DHT22;6548;49.996;8.238;2023-03-14T14:49:31;9.60;99.90
12967;DHT22;6548;49.996;8.238;2023-03-14T14:54:54;9.50;99.90
12967;DHT22;6548;49.996;8.238;2023-03-14T14:57:30;9.60;99.90
12967;DHT22;6548;49.996;8.238;2023-03-14T15:00:00;9.40;99.90
12967;DHT22;6548;49.996;8.238;2023-03-14T15:02:31;9.40;99.90
12967;DHT22;6548;49.996;8.238;2023-03-14T15:04:59;9.30;99.90
12967;DHT22;6548;49.996;8.238;2023-03-14T15:07:25;9.30;99.90
12967;DHT22;6548;49.996;8.238;2023-03-14T15:09:50;9.30;99.90
12967;DHT22;6548;49.996;8.238;2023-03-14T15:12:16;9.20;99.90
12967;DHT22;6548;49.996;8.238;2023-03-14T15:14:41;9.20;99.90
12967;DHT22;6548;49.996;8.238;2023-03-14T15:17:10;8.80;99.90
12967;DHT22;6548;49.996;8.238;2023-03-14T15:19:36;8.20;99.90
12967;DHT22;6548;49.996;8.238;2023-03-14T15:22:02;8.00;99.90
12967;DHT22;6548;49.996;8.238;2023-03-14T15:24:27;7.80;99.90
12967;DHT22;6548;49.996;8.238;2023-03-14T15:26:53;7.70;99.90
12967;DHT22;6548;49.996;8.238;2023-03-14T15:29:18;7.50;99.90
12967;DHT22;6548;49.996;8.238;2023-03-14T15:31:44;7.60;99.90
12967;DHT22;6548;49.996;8.238;2023-03-14T15:34:10;7.60;99.90
12967;DHT22;6548;49.996;8.238;2023-03-14T15:36:36;7.60;99.90
12967;DHT22;6548;49.996;8.238;2023-03-14T15:39:04;7.70;99.90
12967;DHT22;6548;49.996;8.238;2023-03-14T15:41:31;7.90;99.90
12967;DHT22;6548;49.996;8.238;2023-03-14T15:43:57;8.00;99.90
12967;DHT22;6548;49.996;8.238;2023-03-14T15:46:23;8.30;99.90
12967;DHT22;6548;49.996;8.238;2023-03-14T15:48:50;8.40;99.90
12967;DHT22;6548;49.996;8.238;2023-03-14T15:51:16;8.10;99.90
12967;DHT22;6548;49.996;8.238;2023-03-14T15:53:42;7.70;99.90
12967;DHT22;6548;49.996;8.238;2023-03-14T15:56:17;7.60;99.90
12967;DHT22;6548;49.996;8.238;2023-03-14T15:58:43;7.30;99.90
12967;DHT22;6548;49.996;8.238;2023-03-14T16:01:12;7.10;99.90
12967;DHT22;6548;49.996;8.238;2023-03-14T16:03:38;6.90;99.90
12967;DHT22;6548;49.996;8.238;2023-03-14T16:06:05;6.90;99.90
12967;DHT22;6548;49.996;8.238;2023-03-14T16:08:30;6.90;99.90
12967;DHT22;6548;49.996;8.238;2023-03-14T16:10:58;7.00;99.90
12967;DHT22;6548;49.996;8.238;2023-03-14T16:13:24;6.90;99.90
12967;DHT22;6548;49.996;8.238;2023-03-14T16:15:55;6.90;99.90
12967;DHT22;6548;49.996;8.238;2023-03-14T16:18:21;6.80;99.90
12967;DHT22;6548;49.996;8.238;2023-03-14T16:20:58;6.80;99.90
12967;DHT22;6548;49.996;8.238;2023-03-14T16:23:24;6.80;99.90
12967;DHT22;6548;49.996;8.238;2023-03-14T16:25:51;6.80;99.90
12967;DHT22;6548;49.996;8.238;2023-03-14T16:28:17;6.90;99.90
12967;DHT22;6548;49.996;8.238;2023-03-14T16:30:43;6.90;99.90
12967;DHT22;6548;49.996;8.238;2023-03-14T16:33:08;6.90;99.90
12967;DHT22;6548;49.996;8.238;2023-03-14T16:35:40;6.90;99.90
12967;DHT22;6548;49.996;8.238;2023-03-14T16:38:07;7.00;99.90
12967;DHT22;6548;49.996;8.238;2023-03-14T16:40:33;7.00;99.90
12967;DHT22;6548;49.996;8.238;2023-03-14T16:42:58;7.00;99.90
12967;DHT22;6548;49.996;8.238;2023-03-14T16:45:24;6.90;99.90
12967;DHT22;6548;49.996;8.238;2023-03-14T16:47:49;6.70;99.90
12967;DHT22;6548;49.996;8.238;2023-03-14T16:50:15;6.60;99.90
12967;DHT22;6548;49.996;8.238;2023-03-14T16:52:40;6.30;99.90
12967;DHT22;6548;49.996;8.238;2023-03-14T16:55:06;6.10;99.90
12967;DHT22;6548;49.996;8.238;2023-03-14T16:57:33;5.90;99.90
12967;DHT22;6548;49.996;8.238;2023-03-14T16:59:58;5.80;99.90
12967;DHT22;6548;49.996;8.238;2023-03-14T17:02:24;5.80;99.90
12967;DHT22;6548;49.996;8.238;2023-03-14T17:04:49;5.70;99.90
12967;DHT22;6548;49.996;8.238;2023-03-14T17:07:15;5.70;99.90
12967;DHT22;6548;49.996;8.238;2023-03-14T17:09:41;5.70;99.90
12967;DHT22;6548;49.996;8.238;2023-03-14T17:12:07;5.60;99.90